Terenos, Brazil
Current Conditions -  °F | °C
As of 2:00 AM on Sunday 26 Oct 2014 (Local Time) from SBCG Reporting Station
Broken Clouds Broken Clouds  
Wind Chill: 68°   Ceiling: 10000
Heat Index: 68°   Visibility: 6mi
Dew Point: 64°   Wind: 10mph
Humidity: 88%   Direction: 50°NE
Pressure: 29.88"   Gusts: NA
Location:  20.44°S, 54.88°W
Report Text: SBCG 260500Z 05009KT 9999 SCT030 FEW040TCU BKN100 20/18 Q1012
Loading
Personal Weather Stations






























Interactive Weather Map
Tropical Storm Tracking
New forecast layout! Learn more

10-Day Weather Forecast

Advertisements
Track Severe Weather on mobile